CPA629 VHHH-RPLL
Flight info
| Callsign | CPA629 |
|---|---|
| Flight time | 1h 37m |
| Altitude | 39000 |
| Route | DALOL DCT NOMAN A461 CAB CAB5R |
| Aircraft | A333/H-SDE3GHIJ2J3J5M1RVWXY/LB2D1 |
Departure
| Time | 2026-05-04 11:36 |
|---|---|
| Airport | Hong Kong International Airport (VHHH) |
Arrival
| Time | 2026-05-04 13:14 |
|---|---|
| Airport | Ninoy Aquino International Airport (RPLL) |
| Time | Latitude | Longitude | Altitude | Speed | Heading |
|---|---|---|---|---|---|
| 2026-05-04 10:51 | 22.31261 | 113.92835 | 35 ft | 0 kts | 342° |
| 2026-05-04 11:22 | 22.31256 | 113.92837 | 35 ft | 2 kts | 342° |
| 2026-05-04 11:22 | 22.31240 | 113.92842 | 33 ft | 2 kts | 342° |
| 2026-05-04 11:23 | 22.31223 | 113.92848 | 33 ft | 2 kts | 342° |
| 2026-05-04 11:23 | 22.31211 | 113.92852 | 32 ft | 0 kts | 342° |
| 2026-05-04 11:24 | 22.31167 | 113.92889 | 32 ft | 0 kts | 207° |
| 2026-05-04 11:28 | 22.31163 | 113.92887 | 32 ft | 2 kts | 207° |
| 2026-05-04 11:28 | 22.31151 | 113.92880 | 33 ft | 2 kts | 207° |
| 2026-05-04 11:29 | 22.31128 | 113.92868 | 34 ft | 5 kts | 206° |
| 2026-05-04 11:29 | 22.31088 | 113.92848 | 35 ft | 7 kts | 204° |
| 2026-05-04 11:29 | 22.31034 | 113.92821 | 35 ft | 10 kts | 205° |
| 2026-05-04 11:29 | 22.30966 | 113.92787 | 35 ft | 12 kts | 205° |
| 2026-05-04 11:31 | 22.30599 | 113.91976 | 35 ft | 23 kts | 251° |
| 2026-05-04 11:33 | 22.30158 | 113.90596 | 34 ft | 32 kts | 251° |
| 2026-05-04 11:33 | 22.30085 | 113.90368 | 34 ft | 30 kts | 250° |
| 2026-05-04 11:33 | 22.30040 | 113.90230 | 34 ft | 14 kts | 251° |
| 2026-05-04 11:34 | 22.30002 | 113.90197 | 34 ft | 5 kts | 182° |
| 2026-05-04 11:34 | 22.29954 | 113.90208 | 34 ft | 10 kts | 163° |
| 2026-05-04 11:34 | 22.29860 | 113.90239 | 32 ft | 17 kts | 162° |
| 2026-05-04 11:34 | 22.29785 | 113.90272 | 31 ft | 4 kts | 133° |
| 2026-05-04 11:35 | 22.29782 | 113.90295 | 31 ft | 5 kts | 92° |
| 2026-05-04 11:35 | 22.29795 | 113.90344 | 31 ft | 15 kts | 71° |
| 2026-05-04 11:35 | 22.29897 | 113.90660 | 33 ft | 78 kts | 69° |
| 2026-05-04 11:35 | 22.30148 | 113.91438 | 35 ft | 139 kts | 68° |
| 2026-05-04 11:36 | 22.30491 | 113.92557 | 469 ft | 159 kts | 74° |
| 2026-05-04 11:36 | 22.30825 | 113.93674 | 1320 ft | 154 kts | 73° |
| 2026-05-04 11:36 | 22.31168 | 113.94742 | 2104 ft | 151 kts | 73° |
| 2026-05-04 11:36 | 22.31532 | 113.95825 | 2654 ft | 155 kts | 72° |
| 2026-05-04 11:37 | 22.31907 | 113.96932 | 3130 ft | 161 kts | 72° |
| 2026-05-04 11:37 | 22.32308 | 113.98153 | 3425 ft | 184 kts | 72° |
| 2026-05-04 11:37 | 22.32750 | 113.99547 | 3745 ft | 208 kts | 73° |
| 2026-05-04 11:37 | 22.33223 | 114.01090 | 4245 ft | 223 kts | 73° |
| 2026-05-04 11:38 | 22.33702 | 114.02724 | 4857 ft | 234 kts | 77° |
| 2026-05-04 11:38 | 22.33776 | 114.04510 | 5377 ft | 245 kts | 102° |
| 2026-05-04 11:38 | 22.33133 | 114.06267 | 5752 ft | 262 kts | 124° |
| 2026-05-04 11:38 | 22.31844 | 114.07720 | 6100 ft | 274 kts | 148° |
| 2026-05-04 11:39 | 22.30126 | 114.08564 | 6623 ft | 277 kts | 169° |
| 2026-05-04 11:39 | 22.28213 | 114.08796 | 7209 ft | 278 kts | 182° |
| 2026-05-04 11:40 | 22.16286 | 114.09485 | 10592 ft | 332 kts | 150° |
| 2026-05-04 11:41 | 22.14654 | 114.11351 | 10911 ft | 355 kts | 123° |
| 2026-05-04 11:41 | 22.13537 | 114.13762 | 11385 ft | 362 kts | 118° |
| 2026-05-04 11:41 | 22.12453 | 114.16196 | 11948 ft | 366 kts | 119° |
| 2026-05-04 11:41 | 22.11319 | 114.18665 | 12491 ft | 370 kts | 119° |
| 2026-05-04 11:42 | 22.10153 | 114.21154 | 13044 ft | 374 kts | 120° |
| 2026-05-04 11:42 | 22.08961 | 114.23652 | 13636 ft | 376 kts | 120° |
| 2026-05-04 11:42 | 22.07574 | 114.26049 | 14115 ft | 375 kts | 134° |
| 2026-05-04 11:42 | 22.05639 | 114.27906 | 14591 ft | 372 kts | 147° |
| 2026-05-04 11:43 | 22.03552 | 114.29581 | 15058 ft | 375 kts | 148° |
| 2026-05-04 11:43 | 22.01454 | 114.31213 | 15552 ft | 377 kts | 148° |
| 2026-05-04 11:43 | 21.99316 | 114.32871 | 16102 ft | 378 kts | 148° |
| 2026-05-04 11:43 | 21.97188 | 114.34533 | 16703 ft | 379 kts | 148° |
| 2026-05-04 11:44 | 21.95028 | 114.36227 | 17022 ft | 387 kts | 148° |
| 2026-05-04 11:44 | 21.92845 | 114.37948 | 17443 ft | 391 kts | 148° |
| 2026-05-04 11:44 | 21.90643 | 114.39680 | 17970 ft | 391 kts | 148° |
| 2026-05-04 11:44 | 21.88430 | 114.41413 | 18413 ft | 394 kts | 148° |
| 2026-05-04 11:45 | 21.86302 | 114.43311 | 18774 ft | 402 kts | 137° |
| 2026-05-04 11:45 | 21.84653 | 114.45727 | 19150 ft | 411 kts | 120° |
| 2026-05-04 11:45 | 21.83627 | 114.48623 | 19470 ft | 419 kts | 108° |
| 2026-05-04 11:45 | 21.82841 | 114.51656 | 19820 ft | 422 kts | 107° |
| 2026-05-04 11:46 | 21.82077 | 114.54722 | 20208 ft | 424 kts | 107° |
| 2026-05-04 11:46 | 21.81317 | 114.57790 | 20598 ft | 426 kts | 107° |
| 2026-05-04 11:46 | 21.80536 | 114.60878 | 20959 ft | 428 kts | 107° |
| 2026-05-04 11:46 | 21.79737 | 114.63978 | 21355 ft | 429 kts | 108° |
| 2026-05-04 11:47 | 21.78924 | 114.67085 | 21658 ft | 433 kts | 108° |
| 2026-05-04 11:47 | 21.78100 | 114.70219 | 21967 ft | 437 kts | 108° |
| 2026-05-04 11:47 | 21.77281 | 114.73374 | 22308 ft | 439 kts | 108° |
| 2026-05-04 11:47 | 21.76476 | 114.76545 | 22654 ft | 441 kts | 107° |
| 2026-05-04 11:48 | 21.75653 | 114.79738 | 23011 ft | 443 kts | 108° |
| 2026-05-04 11:48 | 21.74764 | 114.82922 | 23318 ft | 444 kts | 113° |
| 2026-05-04 11:48 | 21.73409 | 114.85890 | 23613 ft | 442 kts | 126° |
| 2026-05-04 11:48 | 21.71675 | 114.88625 | 23887 ft | 442 kts | 129° |
| 2026-05-04 11:49 | 21.69838 | 114.91291 | 24150 ft | 443 kts | 131° |
| 2026-05-04 11:49 | 21.67973 | 114.93892 | 24415 ft | 445 kts | 132° |
| 2026-05-04 11:49 | 21.66055 | 114.96512 | 24686 ft | 446 kts | 132° |
| 2026-05-04 11:49 | 21.64133 | 114.99136 | 24964 ft | 448 kts | 132° |
| 2026-05-04 11:50 | 21.62213 | 115.01778 | 25233 ft | 450 kts | 132° |
| 2026-05-04 11:50 | 21.60292 | 115.04446 | 25491 ft | 452 kts | 132° |
| 2026-05-04 11:50 | 21.58373 | 115.07131 | 25759 ft | 454 kts | 132° |
| 2026-05-04 11:50 | 21.56448 | 115.09836 | 26021 ft | 455 kts | 132° |
| 2026-05-04 11:51 | 21.54525 | 115.12544 | 26299 ft | 457 kts | 131° |
| 2026-05-04 11:51 | 21.52587 | 115.15274 | 26568 ft | 459 kts | 132° |
| 2026-05-04 11:51 | 21.50651 | 115.18001 | 26824 ft | 460 kts | 132° |
| 2026-05-04 11:51 | 21.48727 | 115.20709 | 27079 ft | 462 kts | 132° |
| 2026-05-04 11:52 | 21.46772 | 115.23458 | 27332 ft | 464 kts | 132° |
| 2026-05-04 11:52 | 21.44811 | 115.26213 | 27597 ft | 465 kts | 132° |
| 2026-05-04 11:52 | 21.42842 | 115.28978 | 27867 ft | 467 kts | 132° |
| 2026-05-04 11:52 | 21.40865 | 115.31752 | 28130 ft | 469 kts | 132° |
| 2026-05-04 11:53 | 21.38878 | 115.34538 | 28387 ft | 470 kts | 132° |
| 2026-05-04 11:53 | 21.37564 | 115.36380 | 28616 ft | 469 kts | 132° |
| 2026-05-04 11:53 | 21.34907 | 115.40106 | 29018 ft | 470 kts | 132° |
| 2026-05-04 11:53 | 21.32916 | 115.42894 | 29248 ft | 472 kts | 132° |
| 2026-05-04 11:55 | 21.18753 | 115.62686 | 30661 ft | 485 kts | 132° |
| 2026-05-04 11:55 | 21.16688 | 115.65566 | 30850 ft | 486 kts | 132° |
| 2026-05-04 11:56 | 21.14624 | 115.68443 | 31049 ft | 488 kts | 132° |
| 2026-05-04 11:56 | 21.12553 | 115.71329 | 31228 ft | 490 kts | 132° |
| 2026-05-04 11:56 | 21.11176 | 115.73247 | 31358 ft | 491 kts | 132° |
| 2026-05-04 11:56 | 21.09090 | 115.76150 | 31559 ft | 493 kts | 132° |
| 2026-05-04 11:57 | 21.06988 | 115.79076 | 31780 ft | 496 kts | 132° |
| 2026-05-04 11:57 | 21.04875 | 115.82013 | 32029 ft | 498 kts | 132° |
| 2026-05-04 11:57 | 21.02751 | 115.84965 | 32285 ft | 500 kts | 132° |
| 2026-05-04 11:57 | 21.00629 | 115.87914 | 32640 ft | 500 kts | 132° |
| 2026-05-04 11:58 | 20.98509 | 115.90860 | 33059 ft | 498 kts | 132° |
| 2026-05-04 11:58 | 20.96399 | 115.93792 | 33554 ft | 495 kts | 132° |
| 2026-05-04 11:58 | 20.94294 | 115.96714 | 33942 ft | 495 kts | 132° |
| 2026-05-04 11:58 | 20.92218 | 115.99592 | 34269 ft | 495 kts | 132° |
| 2026-05-04 11:59 | 20.90110 | 116.02513 | 34600 ft | 496 kts | 132° |
| 2026-05-04 11:59 | 20.87998 | 116.05437 | 34924 ft | 496 kts | 132° |
| 2026-05-04 11:59 | 20.85807 | 116.08267 | 35244 ft | 492 kts | 138° |
| 2026-05-04 11:59 | 20.83303 | 116.10724 | 35569 ft | 486 kts | 147° |
| 2026-05-04 12:00 | 20.80559 | 116.12837 | 35881 ft | 483 kts | 150° |
| 2026-05-04 12:00 | 20.77765 | 116.14830 | 36194 ft | 482 kts | 152° |
| 2026-05-04 12:00 | 20.74936 | 116.16763 | 36488 ft | 482 kts | 153° |
| 2026-05-04 12:00 | 20.72096 | 116.18664 | 36794 ft | 482 kts | 153° |
| 2026-05-04 12:01 | 20.69279 | 116.20540 | 37087 ft | 482 kts | 153° |
| 2026-05-04 12:01 | 20.66431 | 116.22441 | 37384 ft | 483 kts | 153° |
| 2026-05-04 12:02 | 20.49445 | 116.33895 | 39123 ft | 479 kts | 153° |
| 2026-05-04 12:03 | 20.46657 | 116.35778 | 39381 ft | 478 kts | 152° |
| 2026-05-04 12:03 | 20.43847 | 116.37675 | 39632 ft | 477 kts | 152° |
| 2026-05-04 12:03 | 20.41038 | 116.39570 | 39879 ft | 477 kts | 152° |
| 2026-05-04 12:03 | 20.38239 | 116.41457 | 40114 ft | 476 kts | 152° |
| 2026-05-04 12:04 | 20.35442 | 116.43342 | 40355 ft | 475 kts | 152° |
| 2026-05-04 12:04 | 20.32645 | 116.45225 | 40582 ft | 474 kts | 152° |
| 2026-05-04 12:04 | 20.29853 | 116.47105 | 40802 ft | 474 kts | 152° |
| 2026-05-04 12:04 | 20.27074 | 116.48974 | 40980 ft | 474 kts | 152° |
| 2026-05-04 12:05 | 20.21466 | 116.52744 | 41002 ft | 477 kts | 152° |
| 2026-05-04 12:05 | 20.15844 | 116.56521 | 40994 ft | 477 kts | 152° |
| 2026-05-04 12:06 | 20.10229 | 116.60292 | 40998 ft | 477 kts | 152° |
| 2026-05-04 12:06 | 20.04650 | 116.64035 | 40998 ft | 476 kts | 152° |
| 2026-05-04 12:07 | 19.99286 | 116.68213 | 40999 ft | 482 kts | 139° |
| 2026-05-04 12:07 | 19.94616 | 116.73294 | 40998 ft | 484 kts | 136° |
| 2026-05-04 12:08 | 19.90062 | 116.78590 | 40998 ft | 485 kts | 135° |
| 2026-05-04 12:08 | 19.85527 | 116.83909 | 40998 ft | 485 kts | 136° |
| 2026-05-04 12:09 | 19.80976 | 116.89209 | 41001 ft | 485 kts | 136° |
| 2026-05-04 12:09 | 19.76444 | 116.94459 | 41001 ft | 484 kts | 136° |
| 2026-05-04 12:10 | 19.71880 | 116.99734 | 40998 ft | 484 kts | 136° |
| 2026-05-04 12:10 | 19.67326 | 117.04993 | 40999 ft | 484 kts | 136° |
| 2026-05-04 12:11 | 19.62770 | 117.10250 | 40996 ft | 484 kts | 136° |
| 2026-05-04 12:11 | 19.58237 | 117.15477 | 40990 ft | 483 kts | 136° |
| 2026-05-04 12:12 | 19.53683 | 117.20725 | 40992 ft | 482 kts | 136° |
| 2026-05-04 12:12 | 19.49138 | 117.25956 | 40990 ft | 481 kts | 136° |
| 2026-05-04 12:14 | 19.30983 | 117.46806 | 40989 ft | 481 kts | 136° |
| 2026-05-04 12:15 | 19.26437 | 117.52017 | 40984 ft | 481 kts | 136° |
| 2026-05-04 12:15 | 19.21922 | 117.57185 | 40975 ft | 481 kts | 136° |
| 2026-05-04 12:16 | 19.17378 | 117.62383 | 40975 ft | 479 kts | 136° |
| 2026-05-04 12:16 | 19.12844 | 117.67565 | 40982 ft | 479 kts | 136° |
| 2026-05-04 12:17 | 19.08314 | 117.72737 | 40974 ft | 479 kts | 136° |
| 2026-05-04 12:17 | 19.03805 | 117.77881 | 40973 ft | 479 kts | 136° |
| 2026-05-04 12:18 | 18.99270 | 117.83051 | 40979 ft | 479 kts | 136° |
| 2026-05-04 12:18 | 18.94725 | 117.88226 | 40968 ft | 479 kts | 136° |
| 2026-05-04 12:19 | 18.90221 | 117.93350 | 40982 ft | 479 kts | 136° |
| 2026-05-04 12:19 | 18.85681 | 117.98511 | 40969 ft | 479 kts | 136° |
| 2026-05-04 12:20 | 18.81143 | 118.03666 | 40968 ft | 478 kts | 136° |
| 2026-05-04 12:20 | 18.76608 | 118.08813 | 40973 ft | 477 kts | 136° |
| 2026-05-04 12:21 | 18.72109 | 118.13915 | 40967 ft | 477 kts | 136° |
| 2026-05-04 12:21 | 18.67583 | 118.19042 | 40960 ft | 477 kts | 136° |
| 2026-05-04 12:22 | 18.63058 | 118.24163 | 40964 ft | 477 kts | 136° |
| 2026-05-04 12:22 | 18.58530 | 118.29284 | 40966 ft | 477 kts | 136° |
| 2026-05-04 12:23 | 18.53999 | 118.34404 | 40965 ft | 477 kts | 136° |
| 2026-05-04 12:23 | 18.49498 | 118.39485 | 40961 ft | 477 kts | 136° |
| 2026-05-04 12:24 | 18.44968 | 118.44596 | 40961 ft | 476 kts | 136° |
| 2026-05-04 12:24 | 18.40446 | 118.49693 | 40961 ft | 476 kts | 136° |
| 2026-05-04 12:25 | 18.35915 | 118.54796 | 40959 ft | 476 kts | 136° |
| 2026-05-04 12:25 | 18.31383 | 118.59896 | 40956 ft | 476 kts | 136° |
| 2026-05-04 12:26 | 18.26887 | 118.64951 | 40953 ft | 476 kts | 136° |
| 2026-05-04 12:26 | 18.22353 | 118.70046 | 40955 ft | 476 kts | 136° |
| 2026-05-04 12:27 | 18.17823 | 118.75131 | 40950 ft | 476 kts | 136° |
| 2026-05-04 12:27 | 18.13319 | 118.80182 | 40953 ft | 476 kts | 136° |
| 2026-05-04 12:28 | 18.08787 | 118.85262 | 40946 ft | 475 kts | 136° |
| 2026-05-04 12:28 | 18.04261 | 118.90333 | 40950 ft | 474 kts | 136° |
| 2026-05-04 12:29 | 17.99733 | 118.95401 | 40951 ft | 474 kts | 136° |
| 2026-05-04 12:29 | 17.95212 | 119.00457 | 40940 ft | 474 kts | 136° |
| 2026-05-04 12:30 | 17.90721 | 119.05473 | 40945 ft | 474 kts | 136° |
| 2026-05-04 12:30 | 17.86196 | 119.10524 | 40941 ft | 475 kts | 136° |
| 2026-05-04 12:31 | 17.81675 | 119.15568 | 40936 ft | 474 kts | 136° |
| 2026-05-04 12:31 | 17.77148 | 119.20613 | 40939 ft | 474 kts | 136° |
| 2026-05-04 12:32 | 17.70360 | 119.28172 | 40936 ft | 474 kts | 136° |
| 2026-05-04 12:33 | 17.65836 | 119.33205 | 40936 ft | 473 kts | 136° |
| 2026-05-04 12:33 | 17.61320 | 119.38224 | 40937 ft | 473 kts | 136° |
| 2026-05-04 12:34 | 17.56829 | 119.43212 | 40939 ft | 473 kts | 136° |
| 2026-05-04 12:34 | 17.52312 | 119.48225 | 40933 ft | 473 kts | 136° |
| 2026-05-04 12:35 | 17.47790 | 119.53240 | 40932 ft | 473 kts | 136° |
| 2026-05-04 12:35 | 17.43264 | 119.58253 | 40929 ft | 473 kts | 136° |
| 2026-05-04 12:36 | 17.38737 | 119.63265 | 40929 ft | 473 kts | 136° |
| 2026-05-04 12:36 | 17.34239 | 119.68241 | 40925 ft | 473 kts | 136° |
| 2026-05-04 12:37 | 17.29717 | 119.73239 | 40924 ft | 472 kts | 136° |
| 2026-05-04 12:37 | 17.25196 | 119.78233 | 40926 ft | 472 kts | 136° |
| 2026-05-04 12:38 | 17.20672 | 119.83226 | 40922 ft | 472 kts | 136° |
| 2026-05-04 12:38 | 17.16168 | 119.88193 | 40922 ft | 472 kts | 136° |
| 2026-05-04 12:39 | 17.11642 | 119.93180 | 40920 ft | 473 kts | 136° |
| 2026-05-04 12:39 | 17.07114 | 119.98166 | 40920 ft | 473 kts | 136° |
| 2026-05-04 12:40 | 17.02577 | 120.03158 | 40919 ft | 473 kts | 136° |
| 2026-05-04 12:40 | 16.98070 | 120.08114 | 40915 ft | 473 kts | 136° |
| 2026-05-04 12:41 | 16.93527 | 120.13104 | 40915 ft | 473 kts | 136° |
| 2026-05-04 12:41 | 16.88987 | 120.18087 | 40926 ft | 474 kts | 136° |
| 2026-05-04 12:42 | 16.84453 | 120.23061 | 40924 ft | 474 kts | 136° |
| 2026-05-04 12:42 | 16.79904 | 120.28046 | 40925 ft | 474 kts | 136° |
| 2026-05-04 12:43 | 16.76114 | 120.32198 | 40943 ft | 474 kts | 136° |
| 2026-05-04 12:43 | 16.71108 | 120.36570 | 40945 ft | 466 kts | 153° |
| 2026-05-04 12:44 | 16.65395 | 120.39785 | 40942 ft | 466 kts | 155° |
| 2026-05-04 12:44 | 16.59625 | 120.42901 | 40966 ft | 468 kts | 156° |
| 2026-05-04 12:45 | 16.53874 | 120.45994 | 40965 ft | 468 kts | 156° |
| 2026-05-04 12:45 | 16.48083 | 120.49105 | 40964 ft | 468 kts | 156° |
| 2026-05-04 12:46 | 16.42293 | 120.52213 | 40980 ft | 468 kts | 156° |
| 2026-05-04 12:46 | 16.36503 | 120.55318 | 40967 ft | 468 kts | 156° |
| 2026-05-04 12:47 | 16.30705 | 120.58425 | 40966 ft | 468 kts | 155° |
| 2026-05-04 12:47 | 16.24968 | 120.61499 | 40673 ft | 461 kts | 156° |
| 2026-05-04 12:47 | 16.22128 | 120.63023 | 40401 ft | 456 kts | 156° |
| 2026-05-04 12:48 | 16.19317 | 120.64529 | 39994 ft | 455 kts | 156° |
| 2026-05-04 12:48 | 16.16483 | 120.66044 | 39432 ft | 458 kts | 156° |
| 2026-05-04 12:48 | 16.13636 | 120.67566 | 38917 ft | 461 kts | 156° |
| 2026-05-04 12:48 | 16.10767 | 120.69100 | 38339 ft | 463 kts | 156° |
| 2026-05-04 12:49 | 16.07896 | 120.70634 | 37709 ft | 465 kts | 155° |
| 2026-05-04 12:49 | 16.04997 | 120.72183 | 36790 ft | 472 kts | 155° |
| 2026-05-04 12:49 | 16.02044 | 120.73759 | 35836 ft | 481 kts | 155° |
| 2026-05-04 12:49 | 15.99073 | 120.75345 | 34905 ft | 490 kts | 155° |
| 2026-05-04 12:50 | 15.96022 | 120.76973 | 34040 ft | 495 kts | 154° |
| 2026-05-04 12:50 | 15.92943 | 120.78618 | 33161 ft | 499 kts | 154° |
| 2026-05-04 12:50 | 15.89847 | 120.80270 | 32368 ft | 500 kts | 154° |
| 2026-05-04 12:50 | 15.86773 | 120.81911 | 31394 ft | 494 kts | 154° |
| 2026-05-04 12:51 | 15.83721 | 120.83540 | 30263 ft | 489 kts | 154° |
| 2026-05-04 12:51 | 15.80715 | 120.85143 | 29118 ft | 481 kts | 154° |
| 2026-05-04 12:51 | 15.77759 | 120.86718 | 28023 ft | 473 kts | 154° |
| 2026-05-04 12:51 | 15.74852 | 120.88267 | 26980 ft | 465 kts | 154° |
| 2026-05-04 12:52 | 15.72037 | 120.89766 | 25970 ft | 456 kts | 154° |
| 2026-05-04 12:52 | 15.69233 | 120.91259 | 24972 ft | 448 kts | 153° |
| 2026-05-04 12:52 | 15.66476 | 120.92725 | 24053 ft | 440 kts | 153° |
| 2026-05-04 12:52 | 15.63775 | 120.94162 | 23056 ft | 432 kts | 153° |
| 2026-05-04 12:53 | 15.61131 | 120.95568 | 22353 ft | 417 kts | 153° |
| 2026-05-04 12:53 | 15.58600 | 120.96914 | 21720 ft | 402 kts | 153° |
| 2026-05-04 12:53 | 15.56156 | 120.98213 | 21106 ft | 388 kts | 153° |
| 2026-05-04 12:53 | 15.53790 | 120.99470 | 20652 ft | 372 kts | 153° |
| 2026-05-04 12:54 | 15.51521 | 121.00638 | 20183 ft | 359 kts | 156° |
| 2026-05-04 12:54 | 15.49139 | 121.01445 | 19194 ft | 366 kts | 168° |
| 2026-05-04 12:54 | 15.46594 | 121.01799 | 18407 ft | 377 kts | 174° |
| 2026-05-04 12:54 | 15.43967 | 121.01946 | 17779 ft | 377 kts | 178° |
| 2026-05-04 12:55 | 15.41345 | 121.01975 | 17205 ft | 375 kts | 179° |
| 2026-05-04 12:55 | 15.38744 | 121.01953 | 16661 ft | 373 kts | 180° |
| 2026-05-04 12:55 | 15.36162 | 121.01919 | 16101 ft | 370 kts | 179° |
| 2026-05-04 12:55 | 15.33590 | 121.01891 | 15572 ft | 367 kts | 179° |
| 2026-05-04 12:56 | 15.31050 | 121.01876 | 15051 ft | 365 kts | 179° |
| 2026-05-04 12:56 | 15.28519 | 121.01871 | 14536 ft | 362 kts | 178° |
| 2026-05-04 12:56 | 15.26048 | 121.01875 | 14048 ft | 359 kts | 178° |
| 2026-05-04 12:56 | 15.23552 | 121.01883 | 13501 ft | 357 kts | 178° |
| 2026-05-04 12:57 | 15.21075 | 121.01894 | 12929 ft | 354 kts | 178° |
| 2026-05-04 12:57 | 15.18614 | 121.01905 | 12362 ft | 352 kts | 177° |
| 2026-05-04 12:57 | 15.16166 | 121.01916 | 11819 ft | 350 kts | 177° |
| 2026-05-04 12:57 | 15.13737 | 121.01926 | 11345 ft | 348 kts | 177° |
| 2026-05-04 12:58 | 15.11317 | 121.01866 | 11022 ft | 348 kts | 184° |
| 2026-05-04 12:58 | 15.08954 | 121.01325 | 10779 ft | 345 kts | 195° |
| 2026-05-04 12:58 | 15.06717 | 121.00558 | 10539 ft | 333 kts | 196° |
| 2026-05-04 12:58 | 15.04559 | 120.99780 | 10315 ft | 324 kts | 197° |
| 2026-05-04 12:59 | 15.02471 | 120.99006 | 10090 ft | 315 kts | 197° |
| 2026-05-04 12:59 | 15.00428 | 120.98258 | 9804 ft | 309 kts | 197° |
| 2026-05-04 12:59 | 14.98407 | 120.97522 | 9397 ft | 307 kts | 197° |
| 2026-05-04 12:59 | 14.96401 | 120.96797 | 9001 ft | 305 kts | 197° |
| 2026-05-04 13:00 | 14.94427 | 120.96092 | 8605 ft | 303 kts | 197° |
| 2026-05-04 13:00 | 14.92446 | 120.95375 | 8245 ft | 300 kts | 197° |
| 2026-05-04 13:00 | 14.90492 | 120.94648 | 7879 ft | 297 kts | 197° |
| 2026-05-04 13:00 | 14.88551 | 120.93926 | 7511 ft | 295 kts | 197° |
| 2026-05-04 13:01 | 14.86623 | 120.93215 | 7139 ft | 293 kts | 197° |
| 2026-05-04 13:01 | 14.84708 | 120.92517 | 6780 ft | 291 kts | 197° |
| 2026-05-04 13:01 | 14.82807 | 120.91831 | 6425 ft | 288 kts | 197° |
| 2026-05-04 13:01 | 14.80916 | 120.91153 | 6135 ft | 286 kts | 197° |
| 2026-05-04 13:02 | 14.79037 | 120.90481 | 5887 ft | 286 kts | 197° |
| 2026-05-04 13:02 | 14.77153 | 120.89804 | 5647 ft | 286 kts | 197° |
| 2026-05-04 13:02 | 14.75272 | 120.89128 | 5373 ft | 286 kts | 197° |
| 2026-05-04 13:02 | 14.73395 | 120.88450 | 4987 ft | 285 kts | 197° |
| 2026-05-04 13:03 | 14.71543 | 120.87769 | 4652 ft | 281 kts | 197° |
| 2026-05-04 13:03 | 14.69732 | 120.87100 | 4308 ft | 279 kts | 197° |
| 2026-05-04 13:03 | 14.67918 | 120.86432 | 4048 ft | 272 kts | 197° |
| 2026-05-04 13:03 | 14.66158 | 120.85788 | 3871 ft | 265 kts | 197° |
| 2026-05-04 13:04 | 14.64409 | 120.85155 | 3656 ft | 268 kts | 198° |
| 2026-05-04 13:04 | 14.62669 | 120.84520 | 3451 ft | 261 kts | 198° |
| 2026-05-04 13:04 | 14.60992 | 120.83908 | 3243 ft | 255 kts | 198° |
| 2026-05-04 13:04 | 14.59342 | 120.83303 | 3097 ft | 248 kts | 197° |
| 2026-05-04 13:05 | 14.57740 | 120.82720 | 2998 ft | 238 kts | 197° |
| 2026-05-04 13:05 | 14.56183 | 120.82173 | 2982 ft | 234 kts | 197° |
| 2026-05-04 13:05 | 14.54656 | 120.81618 | 2984 ft | 230 kts | 198° |
| 2026-05-04 13:05 | 14.53160 | 120.81060 | 2993 ft | 227 kts | 198° |
| 2026-05-04 13:06 | 14.51681 | 120.80505 | 3006 ft | 224 kts | 197° |
| 2026-05-04 13:06 | 14.50235 | 120.79965 | 3015 ft | 225 kts | 197° |
| 2026-05-04 13:06 | 14.48746 | 120.79421 | 3006 ft | 229 kts | 196° |
| 2026-05-04 13:06 | 14.47231 | 120.78857 | 3011 ft | 233 kts | 197° |
| 2026-05-04 13:07 | 14.45693 | 120.78287 | 3032 ft | 236 kts | 197° |
| 2026-05-04 13:07 | 14.44112 | 120.77864 | 3141 ft | 233 kts | 184° |
| 2026-05-04 13:07 | 14.42499 | 120.77942 | 3124 ft | 236 kts | 166° |
| 2026-05-04 13:07 | 14.40941 | 120.78518 | 3012 ft | 237 kts | 144° |
| 2026-05-04 13:08 | 14.39945 | 120.79813 | 3001 ft | 233 kts | 105° |
| 2026-05-04 13:08 | 14.39965 | 120.81443 | 2979 ft | 228 kts | 76° |
| 2026-05-04 13:08 | 14.40404 | 120.82936 | 3017 ft | 209 kts | 72° |
| 2026-05-04 13:08 | 14.40974 | 120.84257 | 2991 ft | 194 kts | 62° |
| 2026-05-04 13:09 | 14.41622 | 120.85386 | 2986 ft | 177 kts | 61° |
| 2026-05-04 13:09 | 14.42238 | 120.86427 | 2903 ft | 165 kts | 62° |
| 2026-05-04 13:09 | 14.42827 | 120.87450 | 2672 ft | 164 kts | 63° |
| 2026-05-04 13:09 | 14.43376 | 120.88466 | 2534 ft | 159 kts | 64° |
| 2026-05-04 13:10 | 14.43913 | 120.89449 | 2370 ft | 155 kts | 63° |
| 2026-05-04 13:10 | 14.44436 | 120.90411 | 2161 ft | 153 kts | 63° |
| 2026-05-04 13:10 | 14.44941 | 120.91358 | 1910 ft | 147 kts | 63° |
| 2026-05-04 13:10 | 14.45431 | 120.92260 | 1684 ft | 143 kts | 62° |
| 2026-05-04 13:11 | 14.45944 | 120.93148 | 1511 ft | 145 kts | 62° |
| 2026-05-04 13:11 | 14.46440 | 120.94028 | 1382 ft | 142 kts | 64° |
| 2026-05-04 13:11 | 14.46924 | 120.94905 | 1223 ft | 138 kts | 65° |
| 2026-05-04 13:11 | 14.47411 | 120.95757 | 1022 ft | 138 kts | 64° |
| 2026-05-04 13:12 | 14.47877 | 120.96608 | 864 ft | 135 kts | 63° |
| 2026-05-04 13:12 | 14.48347 | 120.97443 | 669 ft | 133 kts | 62° |
| 2026-05-04 13:12 | 14.48805 | 120.98262 | 490 ft | 132 kts | 63° |
| 2026-05-04 13:12 | 14.49268 | 120.99080 | 320 ft | 130 kts | 63° |
| 2026-05-04 13:13 | 14.49716 | 120.99886 | 150 ft | 132 kts | 63° |
| 2026-05-04 13:13 | 14.50172 | 121.00703 | 43 ft | 128 kts | 62° |
| 2026-05-04 13:13 | 14.50544 | 121.01390 | 49 ft | 96 kts | 57° |
| 2026-05-04 13:13 | 14.50833 | 121.01905 | 55 ft | 73 kts | 60° |
| 2026-05-04 13:14 | 14.51051 | 121.02238 | 54 ft | 42 kts | 40° |
| 2026-05-04 13:14 | 14.51156 | 121.02305 | 57 ft | 6 kts | 2° |
| 2026-05-04 13:14 | 14.51173 | 121.02294 | 52 ft | 1 kts | 308° |
| 2026-05-04 13:14 | 14.51177 | 121.02276 | 54 ft | 6 kts | 287° |
| 2026-05-04 13:15 | 14.51173 | 121.02241 | 56 ft | 5 kts | 254° |
| 2026-05-04 13:15 | 14.51156 | 121.02200 | 52 ft | 8 kts | 244° |
| 2026-05-04 13:15 | 14.51125 | 121.02142 | 57 ft | 11 kts | 240° |
| 2026-05-04 13:15 | 14.51081 | 121.02064 | 52 ft | 14 kts | 240° |
| 2026-05-04 13:16 | 14.51063 | 121.02007 | 55 ft | 4 kts | 275° |
| 2026-05-04 13:16 | 14.51076 | 121.01980 | 52 ft | 5 kts | 304° |
| 2026-05-04 13:16 | 14.51105 | 121.01948 | 52 ft | 7 kts | 317° |
| 2026-05-04 13:16 | 14.51149 | 121.01907 | 55 ft | 10 kts | 318° |
| 2026-05-04 13:17 | 14.51205 | 121.01852 | 52 ft | 13 kts | 314° |
| 2026-05-04 13:17 | 14.51276 | 121.01777 | 51 ft | 16 kts | 314° |
| 2026-05-04 13:17 | 14.51364 | 121.01686 | 51 ft | 20 kts | 315° |
| 2026-05-04 13:17 | 14.51453 | 121.01593 | 50 ft | 12 kts | 315° |
| 2026-05-04 13:18 | 14.51521 | 121.01524 | 50 ft | 15 kts | 316° |
| 2026-05-04 13:18 | 14.51567 | 121.01513 | 51 ft | 1 kts | 43° |
| 2026-05-04 13:18 | 14.51578 | 121.01529 | 51 ft | 4 kts | 51° |
| 2026-05-04 13:18 | 14.51601 | 121.01552 | 50 ft | 6 kts | 44° |
| 2026-05-04 13:19 | 14.51616 | 121.01567 | 49 ft | 0 kts | 44° |